Time;durP1;ratioP1;P1;durP2;ratioP2;P2;SDS_P1;SDS_P2;PMS_P1;PMS_P2;Temp;Humidity;BMP_temperature;BMP_pressure;BME280_temperature;BME280_humidity;BME280_pressure;Samples;Min_cycle;Max_cycle;Signal;HPM_P1;HPM_P2
2021/11/25 00:00:25;;;;;;;;;20.50;20.50;;;;;9.65;54.05;100729.69;2083271;28;45317;-63
2021/11/25 00:01:26;;;;;;;;;22.50;22.50;;;;;9.65;53.98;100727.03;2090713;28;47929;-63
2021/11/25 00:02:26;;;;;;;;;19.00;19.00;;;;;9.64;53.91;100726.16;2089096;28;47667;-64
2021/11/25 00:03:27;;;;;;;;;23.25;20.50;;;;;9.65;54.12;100733.22;2088011;28;47195;-63
2021/11/25 00:04:27;;;;;;;;;25.25;21.75;;;;;9.64;54.09;100726.16;2085905;27;45433;-63
2021/11/25 00:05:28;;;;;;;;;21.00;19.00;;;;;9.65;54.09;100724.38;2100812;27;48219;-63
2021/11/25 00:06:29;;;;;;;;;21.25;18.50;;;;;9.63;54.13;100727.06;2099822;27;47111;-64
2021/11/25 00:07:29;;;;;;;;;24.25;21.50;;;;;9.62;53.91;100727.97;2083359;28;46154;-63
2021/11/25 00:08:30;;;;;;;;;17.50;17.50;;;;;9.61;54.20;100726.22;2085495;28;48200;-64
2021/11/25 00:09:30;;;;;;;;;20.00;20.00;;;;;9.61;54.03;100725.34;2087211;27;45404;-63
2021/11/25 00:10:32;;;;;;;;;21.00;20.25;;;;;9.60;54.03;100728.91;2091559;28;47250;-64
2021/11/25 00:11:32;;;;;;;;;17.00;16.40;;;;;9.60;54.29;100728.91;2087235;28;48101;-64
2021/11/25 00:12:33;;;;;;;;;23.75;21.25;;;;;9.59;54.32;100733.34;2085042;28;47155;-63
2021/11/25 00:13:33;;;;;;;;;20.25;19.50;;;;;9.60;54.16;100736.84;2086486;28;47070;-63
2021/11/25 00:14:36;;;;;;;;;23.25;22.50;;;;;9.60;54.42;100734.19;2083886;28;46986;-63
2021/11/25 00:15:36;;;;;;;;;26.00;25.20;;;;;9.59;54.38;100725.38;2087076;28;46738;-64
2021/11/25 00:16:37;;;;;;;;;27.50;24.00;;;;;9.58;54.54;100730.72;2085015;28;46939;-63
2021/11/25 00:17:39;;;;;;;;;25.00;23.25;;;;;9.58;54.44;100730.72;2086741;28;46112;-63
2021/11/25 00:18:39;;;;;;;;;20.80;20.60;;;;;9.58;54.54;100726.28;2091500;28;48710;-62
2021/11/25 00:19:40;;;;;;;;;23.25;22.00;;;;;9.58;54.51;100731.59;2088798;28;47362;-63
2021/11/25 00:20:41;;;;;;;;;24.00;23.50;;;;;9.58;54.51;100731.59;2090328;28;47464;-63
2021/11/25 00:21:42;;;;;;;;;18.75;16.75;;;;;9.58;54.61;100730.72;2095239;28;47491;-63
2021/11/25 00:22:43;;;;;;;;;24.80;22.80;;;;;9.60;54.43;100728.91;2091256;27;45203;-65
2021/11/25 00:23:44;;;;;;;;;23.00;22.00;;;;;9.60;54.57;100726.25;2095613;28;44989;-63
2021/11/25 00:24:45;;;;;;;;;20.40;20.40;;;;;9.59;54.58;100725.38;2099007;27;47350;-63
2021/11/25 00:25:46;;;;;;;;;24.50;21.25;;;;;9.60;54.56;100728.91;2105352;27;47422;-64
2021/11/25 00:26:46;;;;;;;;;27.50;24.75;;;;;9.61;54.69;100728.00;2088084;28;46378;-64
2021/11/25 00:27:47;;;;;;;;;24.50;22.75;;;;;9.61;54.68;100726.22;2084046;28;47163;-64
2021/11/25 00:28:48;;;;;;;;;18.50;18.50;;;;;9.61;54.67;100728.88;2090008;27;46944;-64
2021/11/25 00:29:48;;;;;;;;;26.00;24.75;;;;;9.61;54.53;100728.88;2098792;27;47304;-64
2021/11/25 00:30:49;;;;;;;;;28.25;25.50;;;;;9.61;54.53;100725.34;2099414;27;47572;-64
2021/11/25 00:31:49;;;;;;;;;23.75;22.75;;;;;9.60;54.56;100721.84;2087048;27;45430;-63
2021/11/25 00:32:50;;;;;;;;;23.00;20.75;;;;;9.60;54.56;100726.25;2085843;28;47232;-64
2021/11/25 00:33:51;;;;;;;;;23.00;21.00;;;;;9.60;54.73;100721.84;2084748;28;47299;-63
2021/11/25 00:34:51;;;;;;;;;24.25;23.75;;;;;9.59;54.62;100714.78;2082004;28;46508;-63
2021/11/25 00:35:52;;;;;;;;;19.25;18.50;;;;;9.59;54.86;100713.91;2083505;28;47194;-63
2021/11/25 00:36:53;;;;;;;;;25.75;22.00;;;;;9.59;54.75;100717.44;2083247;28;48076;-63
2021/11/25 00:37:53;;;;;;;;;23.00;21.00;;;;;9.58;54.78;100714.81;2082980;28;46266;-63
2021/11/25 00:38:54;;;;;;;;;22.25;20.50;;;;;9.60;54.78;100715.66;2085893;28;47136;-63
2021/11/25 00:39:54;;;;;;;;;22.00;22.00;;;;;9.58;54.66;100713.03;2087613;27;46985;-63
2021/11/25 00:40:55;;;;;;;;;26.25;21.75;;;;;9.58;54.78;100713.03;2089047;28;47359;-64
2021/11/25 00:41:55;;;;;;;;;22.25;21.25;;;;;9.57;54.69;100710.41;2087770;28;45676;-63
2021/11/25 00:42:56;;;;;;;;;24.00;22.00;;;;;9.56;54.82;100706.03;2084044;28;46666;-63
2021/11/25 00:43:56;;;;;;;;;25.25;25.00;;;;;9.55;54.73;100710.44;2084102;28;47438;-63
2021/11/25 00:44:57;;;;;;;;;20.75;19.50;;;;;9.54;54.83;100698.09;2085721;28;47097;-63
2021/11/25 00:45:58;;;;;;;;;26.00;24.25;;;;;9.55;54.74;100709.56;2087483;28;47799;-62
2021/11/25 00:46:58;;;;;;;;;23.25;22.25;;;;;9.55;54.78;100698.97;2084473;28;47145;-64
2021/11/25 00:47:59;;;;;;;;;27.00;24.25;;;;;9.55;54.91;100702.50;2083872;28;45585;-62
2021/11/25 00:48:59;;;;;;;;;26.75;24.75;;;;;9.55;54.63;100705.16;2079444;28;47143;-62
2021/11/25 00:50:00;;;;;;;;;30.75;26.50;;;;;9.55;54.92;100702.50;2082360;28;48211;-62
2021/11/25 00:51:00;;;;;;;;;26.00;22.50;;;;;9.54;54.83;100706.06;2083009;28;48133;-62
2021/11/25 00:52:01;;;;;;;;;29.75;27.00;;;;;9.54;54.85;100703.41;2088411;28;47182;-63
2021/11/25 00:53:02;;;;;;;;;25.25;22.50;;;;;9.55;54.75;100706.94;2079144;28;48337;-62
2021/11/25 00:54:03;;;;;;;;;26.25;25.00;;;;;9.55;54.71;100709.56;2082069;28;47914;-63
2021/11/25 00:55:04;;;;;;;;;27.00;25.00;;;;;9.55;54.79;100701.63;2089505;28;47215;-62
2021/11/25 00:56:05;;;;;;;;;17.60;17.20;;;;;9.54;54.79;100702.53;2087562;28;47274;-62
2021/11/25 00:57:06;;;;;;;;;27.25;26.25;;;;;9.54;54.77;100697.25;2083003;28;47698;-62
2021/11/25 00:58:06;;;;;;;;;29.00;27.75;;;;;9.54;54.75;100699.88;2084392;28;46322;-62
2021/11/25 00:59:07;;;;;;;;;24.50;24.25;;;;;9.53;54.80;100699.00;2089146;28;47118;-63
2021/11/25 01:00:11;;;;;;;;;25.75;25.50;;;;;9.54;54.90;100691.94;2083349;28;47395;-63
2021/11/25 01:01:12;;;;;;;;;27.80;27.40;;;;;9.54;55.10;100703.41;2087863;28;47291;-62
2021/11/25 01:02:12;;;;;;;;;23.50;22.25;;;;;9.54;54.94;100700.75;2087139;28;47390;-62
2021/11/25 01:03:14;;;;;;;;;24.75;24.75;;;;;9.56;55.00;100698.06;2085959;28;45508;-63
2021/11/25 01:04:14;;;;;;;;;25.80;25.40;;;;;9.55;54.84;100697.22;2088244;28;48162;-62
2021/11/25 01:05:16;;;;;;;;;27.00;25.75;;;;;9.55;55.08;100702.50;2082255;28;47089;-62
2021/11/25 01:06:17;;;;;;;;;28.40;28.20;;;;;9.56;54.96;100698.06;2086131;28;47217;-63
2021/11/25 01:07:17;;;;;;;;;27.00;23.50;;;;;9.56;54.63;100701.59;2085981;28;47664;-62
2021/11/25 01:08:18;;;;;;;;;26.50;24.25;;;;;9.54;54.91;100698.09;2083224;28;46524;-63
2021/11/25 01:09:19;;;;;;;;;24.20;23.00;;;;;9.53;54.71;100699.00;2084842;28;47323;-62
2021/11/25 01:10:22;;;;;;;;;26.00;25.25;;;;;9.53;54.85;100703.41;2084755;28;47292;-64
2021/11/25 01:11:25;;;;;;;;;21.20;20.40;;;;;9.52;54.90;100701.66;2083230;28;45373;-62
2021/11/25 01:12:28;;;;;;;;;27.00;27.00;;;;;9.52;54.94;100704.31;2088088;28;47067;-63
2021/11/25 01:13:29;;;;;;;;;30.40;28.40;;;;;9.51;54.95;100700.78;2084737;27;48125;-63
2021/11/25 01:14:32;;;;;;;;;27.40;26.20;;;;;9.51;54.80;100708.75;2083048;28;47974;-62
2021/11/25 01:15:34;;;;;;;;;26.00;25.40;;;;;9.50;54.93;100708.75;2085154;28;47879;-63
2021/11/25 01:16:35;;;;;;;;;24.20;22.60;;;;;9.49;54.69;100704.38;2081990;28;46363;-63
2021/11/25 01:17:39;;;;;;;;;30.00;27.50;;;;;9.47;54.74;100707.06;2085435;28;47704;-62
2021/11/25 01:18:40;;;;;;;;;23.40;22.20;;;;;9.46;54.98;100707.09;2084813;28;47731;-61
2021/11/25 01:19:41;;;;;;;;;24.50;24.50;;;;;9.43;54.73;100700.94;2082512;28;46798;-62
2021/11/25 01:20:45;;;;;;;;;27.00;26.60;;;;;9.44;54.96;100699.16;2082643;28;48112;-62
2021/11/25 01:21:46;;;;;;;;;26.20;25.20;;;;;9.44;54.98;100707.13;2082519;28;47825;-64
2021/11/25 01:22:46;;;;;;;;;27.75;23.00;;;;;9.44;54.82;100702.69;2090035;28;47070;-62
2021/11/25 01:23:47;;;;;;;;;21.25;19.25;;;;;9.44;55.13;100707.13;2084670;28;46076;-62
2021/11/25 01:24:47;;;;;;;;;23.50;22.50;;;;;9.46;54.97;100702.66;2081851;28;46276;-61
2021/11/25 01:25:50;;;;;;;;;30.50;28.25;;;;;9.46;55.07;100705.31;2085102;28;48271;-63
2021/11/25 01:26:51;;;;;;;;;26.60;26.20;;;;;9.47;54.72;100700.88;2085999;28;48208;-63
2021/11/25 01:27:52;;;;;;;;;27.40;25.60;;;;;9.46;54.93;100696.47;2086019;28;48433;-64
2021/11/25 01:28:52;;;;;;;;;28.50;25.25;;;;;9.45;54.89;100703.56;2084908;28;45448;-64
2021/11/25 01:29:53;;;;;;;;;26.25;24.50;;;;;9.46;54.78;100704.44;2076258;28;45348;-61
2021/11/25 01:30:57;;;;;;;;;24.75;23.00;;;;;9.46;54.71;100705.31;2080524;28;47250;-64
2021/11/25 01:31:57;;;;;;;;;27.80;27.40;;;;;9.45;54.68;100708.84;2088736;28;48132;-64
2021/11/25 01:32:57;;;;;;;;;22.00;21.00;;;;;9.43;54.62;100706.25;2084066;28;48274;-64
2021/11/25 01:33:58;;;;;;;;;20.50;20.50;;;;;9.42;54.55;100700.97;2087142;28;47313;-64
2021/11/25 01:34:59;;;;;;;;;28.25;25.75;;;;;9.42;54.55;100708.91;2092024;28;47861;-63
2021/11/25 01:36:00;;;;;;;;;18.75;17.50;;;;;9.41;54.69;100708.03;2086636;28;48245;-64
2021/11/25 01:37:01;;;;;;;;;24.40;21.60;;;;;9.39;54.43;100704.53;2082444;28;47336;-62
2021/11/25 01:38:03;;;;;;;;;22.50;22.25;;;;;9.40;54.60;100711.59;2090083;27;46985;-63
2021/11/25 01:39:04;;;;;;;;;17.80;17.80;;;;;9.40;54.58;100710.69;2089712;28;48127;-64
2021/11/25 01:40:07;;;;;;;;;26.25;25.75;;;;;9.41;54.70;100715.13;2092260;28;48246;-64
2021/11/25 01:41:08;;;;;;;;;27.40;27.00;;;;;9.40;54.48;100713.34;2091617;28;46314;-64
2021/11/25 01:42:08;;;;;;;;;26.50;23.75;;;;;9.39;54.35;100708.94;2083688;28;47332;-63
2021/11/25 01:43:09;;;;;;;;;24.25;22.00;;;;;9.36;54.13;100715.19;2091022;28;48201;-63
2021/11/25 01:44:10;;;;;;;;;20.80;20.40;;;;;9.36;54.63;100707.22;2089618;28;47378;-64
2021/11/25 01:45:12;;;;;;;;;23.75;22.25;;;;;9.36;54.68;100719.59;2086215;28;48379;-63
2021/11/25 01:46:17;;;;;;;;;23.60;23.60;;;;;9.36;54.76;100711.66;2081728;28;47115;-65
2021/11/25 01:47:17;;;;;;;;;24.20;21.20;;;;;9.36;54.60;100704.56;2084998;28;47727;-64
2021/11/25 01:48:18;;;;;;;;;27.25;22.25;;;;;9.36;54.48;100704.56;2085251;28;47451;-64
2021/11/25 01:49:19;;;;;;;;;22.25;21.50;;;;;9.36;54.43;100693.97;2086574;28;47148;-64
2021/11/25 01:50:22;;;;;;;;;25.50;22.25;;;;;9.38;54.29;100709.84;2081878;28;48276;-63
2021/11/25 01:51:24;;;;;;;;;21.20;20.00;;;;;9.36;54.20;100693.97;2084826;28;46523;-63
2021/11/25 01:52:24;;;;;;;;;18.40;18.40;;;;;9.36;54.26;100696.63;2082696;28;47064;-64
2021/11/25 01:53:25;;;;;;;;;20.25;19.50;;;;;9.37;54.24;100697.50;2085904;27;46661;-64
2021/11/25 01:54:26;;;;;;;;;17.25;16.00;;;;;9.36;54.48;100706.34;2088870;28;46752;-64
2021/11/25 01:55:27;;;;;;;;;21.75;20.50;;;;;9.37;54.21;100695.72;2091232;27;46861;-63
2021/11/25 01:56:29;;;;;;;;;19.80;19.80;;;;;9.37;54.37;100706.31;2084063;28;47208;-64
2021/11/25 01:57:29;;;;;;;;;22.40;21.20;;;;;9.37;54.28;100705.44;2082710;28;47441;-62
2021/11/25 01:58:30;;;;;;;;;20.50;19.00;;;;;9.38;54.44;100701.91;2082808;28;47183;-62
2021/11/25 01:59:30;;;;;;;;;20.75;20.00;;;;;9.37;54.30;100698.38;2088468;28;46233;-64
2021/11/25 02:00:34;;;;;;;;;21.50;19.25;;;;;9.37;54.29;100697.50;2082700;28;48170;-63
2021/11/25 02:01:35;;;;;;;;;20.40;19.20;;;;;9.37;54.19;100705.44;2089271;27;47103;-63
2021/11/25 02:02:35;;;;;;;;;23.25;21.00;;;;;9.35;53.81;100705.47;2085172;28;47252;-63
2021/11/25 02:03:36;;;;;;;;;24.00;22.25;;;;;9.34;53.87;100702.88;2091430;28;47456;-62
2021/11/25 02:04:37;;;;;;;;;17.80;17.00;;;;;9.34;54.18;100702.88;2091450;28;48730;-63
2021/11/25 02:05:38;;;;;;;;;16.00;16.00;;;;;9.33;54.14;100703.75;2092541;28;46010;-63
2021/11/25 02:06:40;;;;;;;;;18.75;18.75;;;;;9.32;53.87;100696.72;2086603;28;47238;-62
2021/11/25 02:07:40;;;;;;;;;19.20;18.40;;;;;9.31;54.05;100706.44;2091056;28;46605;-62
2021/11/25 02:08:41;;;;;;;;;17.75;16.75;;;;;9.31;53.95;100706.44;2090093;28;45386;-62
2021/11/25 02:09:42;;;;;;;;;16.50;16.50;;;;;9.31;53.80;100705.56;2090502;28;45373;-62
2021/11/25 02:10:45;;;;;;;;;21.25;18.50;;;;;9.31;53.84;100703.78;2090395;28;47353;-62
2021/11/25 02:11:46;;;;;;;;;14.00;13.20;;;;;9.31;53.86;100703.78;2085060;28;47598;-62
2021/11/25 02:12:46;;;;;;;;;15.25;15.00;;;;;9.31;53.71;100700.28;2084447;28;47707;-63
2021/11/25 02:13:47;;;;;;;;;17.00;16.50;;;;;9.32;53.52;100702.03;2087194;28;47613;-64
2021/11/25 02:14:48;;;;;;;;;18.00;14.25;;;;;9.32;53.47;100702.03;2083619;28;46983;-62
2021/11/25 02:15:50;;;;;;;;;17.25;15.25;;;;;9.32;53.56;100704.66;2084162;28;45363;-62
2021/11/25 02:16:50;;;;;;;;;15.60;15.20;;;;;9.30;53.48;100686.16;2091358;28;47292;-63
2021/11/25 02:17:51;;;;;;;;;16.00;15.50;;;;;9.30;53.54;100693.22;2092425;27;47158;-63
2021/11/25 02:18:51;;;;;;;;;19.00;18.00;;;;;9.31;53.52;100687.03;2087128;28;45043;-63
2021/11/25 02:19:53;;;;;;;;;13.25;12.25;;;;;9.32;53.50;100686.13;2085866;28;46873;-63
2021/11/25 02:20:59;;;;;;;;;18.40;15.80;;;;;9.32;53.11;100694.06;2092501;28;48650;-63
2021/11/25 02:21:59;;;;;;;;;14.20;14.20;;;;;9.31;53.22;100684.38;2090693;28;45349;-63
2021/11/25 02:23:01;;;;;;;;;14.00;13.00;;;;;9.31;53.31;100694.97;2088230;28;47373;-63
2021/11/25 02:24:02;;;;;;;;;18.80;17.00;;;;;9.31;53.36;100695.84;2084434;28;45251;-63
2021/11/25 02:25:04;;;;;;;;;17.40;15.60;;;;;9.31;53.20;100697.63;2084158;28;48506;-63
2021/11/25 02:26:05;;;;;;;;;19.80;18.40;;;;;9.31;53.17;100698.50;2085319;28;45900;-62
2021/11/25 02:27:06;;;;;;;;;15.60;15.60;;;;;9.31;53.21;100701.16;2084363;28;46325;-63
2021/11/25 02:28:07;;;;;;;;;16.75;16.50;;;;;9.31;53.30;100695.84;2088662;28;46637;-62
2021/11/25 02:29:08;;;;;;;;;14.00;12.75;;;;;9.31;53.47;100684.38;2084060;28;47187;-62
2021/11/25 02:30:09;;;;;;;;;11.50;10.75;;;;;9.31;53.47;100681.75;2083189;28;47458;-62
2021/11/25 02:31:10;;;;;;;;;19.80;14.80;;;;;9.33;53.34;100686.09;2090168;28;48686;-62
2021/11/25 02:32:14;;;;;;;;;15.75;14.75;;;;;9.33;53.49;100680.81;2089172;28;46852;-64
2021/11/25 02:33:15;;;;;;;;;23.00;21.20;;;;;9.34;53.31;100687.84;2093191;28;47407;-63
2021/11/25 02:34:16;;;;;;;;;16.80;16.80;;;;;9.33;53.48;100678.16;2096922;28;49481;-63
2021/11/25 02:35:20;;;;;;;;;16.00;16.00;;;;;9.35;53.51;100678.13;2084397;28;47121;-63
2021/11/25 02:36:20;;;;;;;;;16.20;15.40;;;;;9.35;53.35;100673.69;2085677;28;48448;-63
2021/11/25 02:37:21;;;;;;;;;16.50;15.00;;;;;9.35;53.12;100681.66;2086694;28;48226;-63
2021/11/25 02:38:22;;;;;;;;;17.75;16.25;;;;;9.35;53.29;100679.00;2087945;28;48339;-63
2021/11/25 02:39:22;;;;;;;;;15.25;14.25;;;;;9.35;53.29;100675.47;2091787;28;47347;-63
2021/11/25 02:40:42;;;;;;;;;18.00;16.75;;;;;9.36;53.17;100685.16;2099684;28;48119;-63
2021/11/25 02:41:42;;;;;;;;;13.60;13.60;;;;;9.34;53.31;100677.25;2084773;28;47452;-63
2021/11/25 02:42:43;;;;;;;;;17.75;14.00;;;;;9.34;53.37;100685.19;2084627;28;47370;-63
2021/11/25 02:43:44;;;;;;;;;14.50;13.00;;;;;9.34;53.19;100682.56;2087726;28;48165;-63
2021/11/25 02:44:45;;;;;;;;;14.75;14.75;;;;;9.34;53.40;100681.69;2083988;27;48572;-62
2021/11/25 02:45:51;;;;;;;;;17.50;15.75;;;;;9.34;53.34;100679.03;2084871;28;47177;-62
2021/11/25 02:46:52;;;;;;;;;17.20;16.20;;;;;9.34;53.30;100679.03;2082980;28;48365;-63
2021/11/25 02:47:54;;;;;;;;;15.00;14.25;;;;;9.35;53.30;100684.28;2084687;28;46239;-62
2021/11/25 02:48:56;;;;;;;;;16.80;16.80;;;;;9.35;53.16;100683.41;2099628;27;46298;-63
2021/11/25 02:49:56;;;;;;;;;17.20;15.40;;;;;9.35;53.31;100684.28;2100185;27;46782;-63
2021/11/25 02:50:59;;;;;;;;;19.75;18.25;;;;;9.36;53.17;100679.88;2088099;28;45489;-62
2021/11/25 02:52:00;;;;;;;;;16.40;16.40;;;;;9.36;53.21;100683.41;2084799;28;47426;-62
2021/11/25 02:53:01;;;;;;;;;17.80;17.80;;;;;9.36;53.43;100678.09;2083281;28;47261;-62
2021/11/25 02:54:02;;;;;;;;;17.75;16.25;;;;;9.37;53.35;100681.63;2077479;28;47345;-62
2021/11/25 02:55:03;;;;;;;;;19.60;17.80;;;;;9.38;53.09;100678.06;2083068;28;48397;-63
2021/11/25 02:56:09;;;;;;;;;19.75;18.50;;;;;9.37;53.25;100678.97;2084588;28;48104;-63
2021/11/25 02:57:10;;;;;;;;;18.00;17.80;;;;;9.36;53.35;100680.75;2101479;27;48319;-62
2021/11/25 02:58:10;;;;;;;;;17.00;15.00;;;;;9.37;53.51;100676.31;2104494;27;45296;-64
2021/11/25 02:59:11;;;;;;;;;24.00;21.00;;;;;9.38;53.21;100680.72;2083902;28;47267;-63
2021/11/25 03:00:36;;;;;;;;;15.00;14.00;;;;;9.37;53.27;100671.91;2083925;28;47500;-63
2021/11/25 03:01:37;;;;;;;;;19.60;19.20;;;;;9.37;53.33;100676.31;2090845;28;48067;-63
2021/11/25 03:02:38;;;;;;;;;18.40;18.20;;;;;9.37;53.27;100677.19;2085416;28;46038;-63
2021/11/25 03:03:39;;;;;;;;;13.75;13.00;;;;;9.38;53.34;100678.06;2084529;28;47029;-63
2021/11/25 03:04:39;;;;;;;;;17.80;17.00;;;;;9.37;53.39;100685.13;2101912;27;45416;-63
2021/11/25 03:05:43;;;;;;;;;20.00;19.75;;;;;9.37;53.19;100676.31;2096905;28;47145;-62
2021/11/25 03:06:44;;;;;;;;;18.00;17.60;;;;;9.37;53.09;100674.53;2080457;28;46646;-63
2021/11/25 03:07:44;;;;;;;;;19.00;19.00;;;;;9.36;53.17;100683.41;2089665;28;47253;-62
2021/11/25 03:08:45;;;;;;;;;21.75;19.50;;;;;9.36;53.31;100679.88;2087940;28;45396;-62
2021/11/25 03:09:46;;;;;;;;;19.80;19.40;;;;;9.34;53.33;100677.25;2084893;28;46126;-63
2021/11/25 03:10:58;;;;;;;;;21.00;18.75;;;;;9.34;53.37;100674.59;2088924;28;47143;-63
2021/11/25 03:11:58;;;;;;;;;14.40;14.40;;;;;9.35;53.36;100680.78;2088386;27;47645;-63
2021/11/25 03:12:59;;;;;;;;;17.25;16.75;;;;;9.34;53.54;100677.25;2090621;28;45389;-62
2021/11/25 03:14:06;;;;;;;;;19.00;18.25;;;;;9.34;53.51;100677.25;2089969;28;47413;-62
2021/11/25 03:15:07;;;;;;;;;17.40;15.40;;;;;9.35;53.50;100683.41;2086886;28;48467;-63
2021/11/25 03:16:10;;;;;;;;;16.20;16.20;;;;;9.34;53.91;100679.91;2090415;28;48032;-62
2021/11/25 03:17:11;;;;;;;;;21.60;20.40;;;;;9.34;53.49;100677.25;2084546;28;47501;-62
2021/11/25 03:18:13;;;;;;;;;23.25;20.00;;;;;9.34;53.49;100679.91;2086131;28;45592;-63
2021/11/25 03:19:13;;;;;;;;;22.80;21.60;;;;;9.35;53.39;100680.78;2078905;28;48203;-62
2021/11/25 03:20:14;;;;;;;;;14.25;14.25;;;;;9.35;53.57;100675.47;2090246;28;48353;-62
2021/11/25 03:21:16;;;;;;;;;22.00;18.75;;;;;9.33;53.51;100678.16;2085538;28;48492;-63
2021/11/25 03:22:16;;;;;;;;;17.20;16.60;;;;;9.35;53.50;100670.19;2088819;27;48272;-62
2021/11/25 03:23:19;;;;;;;;;14.75;13.00;;;;;9.35;53.53;100670.19;2084724;28;48244;-62
2021/11/25 03:24:20;;;;;;;;;20.40;19.60;;;;;9.36;53.75;100666.63;2083624;28;48501;-63
2021/11/25 03:25:21;;;;;;;;;18.50;18.50;;;;;9.36;53.58;100663.97;2084818;28;47322;-63
2021/11/25 03:26:23;;;;;;;;;22.00;19.40;;;;;9.37;53.56;100665.72;2085015;28;47174;-62
2021/11/25 03:27:24;;;;;;;;;24.20;22.20;;;;;9.36;53.82;100659.56;2083583;28;47396;-63
2021/11/25 03:28:25;;;;;;;;;19.50;16.75;;;;;9.36;53.73;100667.50;2092216;28;47960;-62
2021/11/25 03:29:26;;;;;;;;;21.50;19.25;;;;;9.36;53.78;100664.84;2093487;28;47400;-63
2021/11/25 03:30:27;;;;;;;;;16.80;15.80;;;;;9.35;53.65;100659.59;2083627;28;47235;-63
2021/11/25 03:31:30;;;;;;;;;20.25;19.75;;;;;9.36;53.82;100663.97;2089181;28;47386;-63
2021/11/25 03:32:30;;;;;;;;;22.20;20.60;;;;;9.34;53.59;100663.13;2086981;28;47697;-63
2021/11/25 03:33:33;;;;;;;;;23.25;21.00;;;;;9.34;53.84;100663.13;2084752;28;47413;-63
2021/11/25 03:34:33;;;;;;;;;16.80;16.40;;;;;9.33;53.82;100664.91;2091151;28;46788;-62
2021/11/25 03:35:36;;;;;;;;;18.75;17.75;;;;;9.33;53.77;100658.75;2090400;28;47050;-63
2021/11/25 03:36:36;;;;;;;;;22.00;21.20;;;;;9.32;53.95;100659.66;2083333;28;47215;-63
2021/11/25 03:37:37;;;;;;;;;18.50;17.25;;;;;9.31;53.88;100658.78;2085143;28;48095;-63
2021/11/25 03:38:38;;;;;;;;;21.50;20.75;;;;;9.30;53.72;100664.09;2085400;28;47277;-63
2021/11/25 03:39:39;;;;;;;;;23.20;20.80;;;;;9.30;53.81;100658.81;2100019;27;45377;-63
2021/11/25 03:40:40;;;;;;;;;24.75;23.00;;;;;9.30;53.83;100661.44;2099017;27;47202;-63
2021/11/25 03:41:40;;;;;;;;;24.25;22.50;;;;;9.30;53.94;100657.03;2087072;28;47661;-65
2021/11/25 03:42:41;;;;;;;;;23.75;22.50;;;;;9.30;54.17;100662.31;2082466;28;47024;-63
2021/11/25 03:43:42;;;;;;;;;20.00;20.00;;;;;9.31;53.87;100657.91;2085967;28;48567;-63
2021/11/25 03:44:45;;;;;;;;;21.40;20.60;;;;;9.31;54.15;100655.25;2082926;28;47329;-62
2021/11/25 03:45:46;;;;;;;;;19.20;19.20;;;;;9.32;54.06;100657.00;2086026;28;47335;-63
2021/11/25 03:46:46;;;;;;;;;23.40;21.40;;;;;9.31;54.12;100668.50;2086240;28;45731;-63
2021/11/25 03:47:47;;;;;;;;;22.00;21.00;;;;;9.30;53.90;100656.16;2082771;28;47419;-62
2021/11/25 03:48:47;;;;;;;;;22.50;22.50;;;;;9.29;53.92;100657.94;2089830;28;46284;-65
2021/11/25 03:49:48;;;;;;;;;19.75;19.25;;;;;9.29;54.05;100659.72;2084694;28;46805;-63
2021/11/25 03:50:49;;;;;;;;;27.00;24.50;;;;;9.29;54.00;100663.22;2083229;28;47443;-63
2021/11/25 03:51:49;;;;;;;;;22.25;21.50;;;;;9.29;53.92;100660.59;2085549;28;47219;-63
2021/11/25 03:52:50;;;;;;;;;23.50;21.00;;;;;9.29;54.16;100657.06;2083398;28;47152;-63
2021/11/25 03:53:50;;;;;;;;;23.50;23.50;;;;;9.28;54.13;100658.84;2084035;28;46970;-63
2021/11/25 03:54:54;;;;;;;;;22.00;22.00;;;;;9.29;54.21;100654.41;2087815;28;47173;-63
2021/11/25 03:55:56;;;;;;;;;28.40;26.20;;;;;9.28;54.35;100655.31;2086878;28;47111;-63
2021/11/25 03:56:56;;;;;;;;;20.20;20.00;;;;;9.28;54.17;100653.53;2082834;28;47398;-63
2021/11/25 03:57:57;;;;;;;;;22.50;21.25;;;;;9.30;54.14;100658.81;2090549;28;45103;-62
2021/11/25 03:58:57;;;;;;;;;24.25;23.00;;;;;9.29;54.32;100655.28;2082941;28;48337;-64
2021/11/25 03:59:58;;;;;;;;;26.75;25.25;;;;;9.29;54.38;100651.75;2083272;28;48182;-62
2021/11/25 04:00:59;;;;;;;;;23.00;21.50;;;;;9.29;54.43;100659.72;2092285;28;46271;-63
2021/11/25 04:02:00;;;;;;;;;21.20;20.00;;;;;9.28;54.31;100655.31;2095816;28;46439;-62
2021/11/25 04:03:02;;;;;;;;;23.75;22.25;;;;;9.27;54.33;100651.75;2084155;28;47874;-63
2021/11/25 04:04:03;;;;;;;;;25.80;24.20;;;;;9.26;54.04;100657.09;2084200;28;47967;-63
2021/11/25 04:05:04;;;;;;;;;23.75;23.00;;;;;9.24;54.34;100656.25;2083029;28;48106;-63
2021/11/25 04:06:04;;;;;;;;;24.75;23.25;;;;;9.22;54.36;100652.75;2084941;28;48673;-63
2021/11/25 04:07:05;;;;;;;;;19.25;19.25;;;;;9.19;54.19;100648.41;2087841;28;47229;-63
2021/11/25 04:08:05;;;;;;;;;22.50;22.50;;;;;9.17;54.44;100652.84;2089661;28;47012;-63
2021/11/25 04:09:06;;;;;;;;;24.00;22.00;;;;;9.16;54.26;100658.16;2090941;28;48195;-62
2021/11/25 04:10:09;;;;;;;;;28.25;25.00;;;;;9.11;54.46;100659.09;2084025;28;48202;-63
2021/11/25 04:11:10;;;;;;;;;24.00;23.80;;;;;9.10;54.44;100653.84;2086724;28;47366;-62
2021/11/25 04:12:10;;;;;;;;;29.50;26.75;;;;;9.08;54.60;100655.63;2082689;27;46917;-63
2021/11/25 04:13:11;;;;;;;;;26.25;23.50;;;;;9.06;54.46;100662.75;2098423;28;47404;-63
2021/11/25 04:14:11;;;;;;;;;20.50;19.50;;;;;9.05;54.53;100650.41;2092537;28;47070;-63
2021/11/25 04:15:15;;;;;;;;;23.50;23.50;;;;;9.03;54.59;100655.72;2089805;28;47255;-63
2021/11/25 04:16:15;;;;;;;;;28.20;25.40;;;;;9.02;54.71;100653.97;2089429;28;47706;-63
2021/11/25 04:17:18;;;;;;;;;25.50;24.25;;;;;9.02;54.82;100645.13;2083324;28;47319;-63
2021/11/25 04:18:19;;;;;;;;;26.40;23.80;;;;;9.00;54.80;100652.22;2088850;28;48355;-63
2021/11/25 04:19:19;;;;;;;;;26.00;21.25;;;;;8.98;54.83;100651.38;2085483;27;45288;-63
2021/11/25 04:20:20;;;;;;;;;27.50;24.75;;;;;8.96;54.97;100654.06;2085281;28;46251;-63
2021/11/25 04:21:21;;;;;;;;;27.75;26.50;;;;;8.96;55.18;100655.84;2082472;28;45886;-63
2021/11/25 04:22:22;;;;;;;;;23.50;23.50;;;;;8.95;55.16;100662.91;2085107;28;47230;-63
2021/11/25 04:23:22;;;;;;;;;29.60;27.80;;;;;8.92;55.14;100660.31;2085039;28;47403;-63
2021/11/25 04:24:23;;;;;;;;;26.00;22.75;;;;;8.91;55.36;100658.56;2087867;28;47296;-63
2021/11/25 04:25:24;;;;;;;;;22.25;20.50;;;;;8.90;55.18;100664.75;2084643;28;48209;-63
2021/11/25 04:26:24;;;;;;;;;33.80;30.00;;;;;8.89;55.46;100659.47;2090013;28;48030;-63
2021/11/25 04:27:25;;;;;;;;;33.25;32.75;;;;;8.88;55.32;100663.88;2086040;28;47063;-63
2021/11/25 04:28:26;;;;;;;;;27.50;27.00;;;;;8.88;55.48;100668.31;2085826;28;46191;-63
2021/11/25 04:29:27;;;;;;;;;31.25;29.25;;;;;8.87;55.68;100662.13;2083497;28;47233;-63
2021/11/25 04:35:55;;;;;;;;;33.20;32.20;;;;;8.81;56.09;100660.47;2088795;28;47382;-63
2021/11/25 04:36:56;;;;;;;;;42.00;34.20;;;;;8.79;56.39;100662.28;2087112;28;48469;-63
2021/11/25 04:37:59;;;;;;;;;31.75;31.50;;;;;8.77;56.23;100660.56;2085094;28;47085;-63
2021/11/25 04:39:00;;;;;;;;;39.60;36.60;;;;;8.76;56.31;100661.44;2086393;28;46527;-63
2021/11/25 04:40:01;;;;;;;;;41.00;36.50;;;;;8.74;56.41;100660.56;2090866;28;47724;-63
2021/11/25 04:41:02;;;;;;;;;45.25;37.25;;;;;8.71;56.83;100661.50;2098879;28;45380;-63
2021/11/25 04:42:03;;;;;;;;;41.40;36.20;;;;;8.70;56.50;100658.88;2096134;27;47819;-63
2021/11/25 04:43:05;;;;;;;;;37.50;33.00;;;;;8.68;56.54;100661.56;2087610;28;48378;-63
2021/11/25 04:44:05;;;;;;;;;46.40;37.00;;;;;8.68;57.06;100661.56;2082002;28;46663;-63
2021/11/25 04:45:06;;;;;;;;;40.00;35.75;;;;;8.67;56.73;100666.88;2088841;28;45380;-63
2021/11/25 04:46:07;;;;;;;;;45.80;39.20;;;;;8.66;56.94;100663.38;2086415;28;48603;-63
2021/11/25 04:47:10;;;;;;;;;43.75;39.00;;;;;8.64;56.71;100667.81;2088444;28;48477;-64